Time;durP1;ratioP1;P1;durP2;ratioP2;P2;SDS_P1;SDS_P2;PMS_P1;PMS_P2;Temp;Humidity;BMP_temperature;BMP_pressure;BME280_temperature;BME280_humidity;BME280_pressure;Samples;Min_cycle;Max_cycle;Signal;HPM_P1;HPM_P2
2022/09/01 00:01:26;;;;;;;17.87;15.93;;;;;;;16.37;91.27;92698.25;5031028;28;20189;-69
2022/09/01 00:03:54;;;;;;;16.70;15.10;;;;;;;16.31;91.33;92695.00;5030896;28;20238;-69
2022/09/01 00:06:22;;;;;;;16.13;14.63;;;;;;;16.30;91.46;92695.31;5031290;28;20207;-69
2022/09/01 00:08:52;;;;;;;17.73;16.03;;;;;;;16.25;92.27;92684.94;5030563;28;20231;-70
2022/09/01 00:11:19;;;;;;;17.00;15.20;;;;;;;16.16;92.80;92687.56;5031076;28;20190;-69
2022/09/01 00:13:45;;;;;;;16.37;14.60;;;;;;;16.11;93.03;92676.44;5011341;28;20207;-70
2022/09/01 00:16:13;;;;;;;17.70;15.37;;;;;;;16.13;92.81;92680.28;5022122;28;20170;-69
2022/09/01 00:18:44;;;;;;;17.37;15.77;;;;;;;16.04;92.94;92682.94;5049213;28;20194;-69
2022/09/01 00:21:10;;;;;;;19.83;16.40;;;;;;;15.91;93.18;92643.56;5044945;28;20210;-69
2022/09/01 00:23:36;;;;;;;16.47;14.77;;;;;;;16.00;93.25;92654.88;5030186;28;20182;-69
2022/09/01 00:26:01;;;;;;;17.97;16.10;;;;;;;16.14;92.60;92667.91;5030357;28;20207;-71
2022/09/01 00:28:27;;;;;;;17.40;15.90;;;;;;;16.11;92.48;92664.00;5030296;28;20190;-71
2022/09/01 00:30:52;;;;;;;16.90;15.10;;;;;;;16.02;92.54;92650.88;5030911;28;20212;-69
2022/09/01 00:33:18;;;;;;;17.50;15.90;;;;;;;15.76;93.24;92636.91;5030510;28;20632;-69
2022/09/01 00:35:43;;;;;;;18.47;15.93;;;;;;;15.89;94.18;92677.34;5029656;28;20227;-69
2022/09/01 00:38:09;;;;;;;17.13;15.40;;;;;;;15.73;93.55;92642.03;5030720;28;20181;-70
2022/09/01 00:40:35;;;;;;;18.10;16.20;;;;;;;15.94;93.04;92685.06;5030254;28;20230;-69
2022/09/01 00:43:01;;;;;;;18.33;16.60;;;;;;;15.86;93.24;92677.94;5039626;28;20170;-69
2022/09/01 00:45:27;;;;;;;18.10;16.30;;;;;;;15.80;93.94;92684.44;5029748;28;20234;-68
2022/09/01 00:47:52;;;;;;;16.67;15.10;;;;;;;15.74;95.00;92691.72;5030820;28;20179;-69
2022/09/01 00:50:19;;;;;;;19.57;15.43;;;;;;;15.58;95.68;92687.97;5029956;28;20249;-70
2022/09/01 00:52:49;;;;;;;16.47;14.80;;;;;;;15.40;95.73;92681.13;5030204;28;20186;-69
2022/09/01 00:55:21;;;;;;;17.67;15.77;;;;;;;15.63;95.05;92685.19;5030036;28;20230;-70
2022/09/01 00:57:46;;;;;;;17.30;15.60;;;;;;;15.55;94.92;92664.91;5029757;28;20198;-69
2022/09/01 01:00:15;;;;;;;18.27;16.23;;;;;;;15.75;94.87;92688.00;5029980;28;20230;-69
2022/09/01 01:02:41;;;;;;;20.17;16.13;;;;;;;15.77;95.22;92688.47;5029757;28;20191;-69
2022/09/01 01:05:07;;;;;;;17.97;16.33;;;;;;;15.72;95.53;92687.88;5029556;28;20241;-69
2022/09/01 01:07:37;;;;;;;20.37;15.93;;;;;;;15.75;95.77;92693.25;5029679;28;20227;-69
2022/09/01 01:10:04;;;;;;;17.90;16.00;;;;;;;15.74;95.86;92685.69;5029565;28;20218;-69
2022/09/01 01:12:29;;;;;;;17.23;15.73;;;;;;;15.51;96.03;92668.47;5021282;28;20186;-69
2022/09/01 01:14:55;;;;;;;17.97;16.33;;;;;;;15.70;96.21;92690.03;5009587;28;20223;-69
2022/09/01 01:17:22;;;;;;;16.93;15.33;;;;;;;15.68;96.05;92700.84;5021017;28;20183;-69
2022/09/01 01:23:01;;;;;;;18.47;16.70;;;;;;;15.43;96.42;92667.34;5027327;28;20197;-69
2022/09/01 01:25:28;;;;;;;17.97;16.07;;;;;;;15.71;96.48;92713.41;5029081;28;20238;-71
2022/09/01 01:28:26;;;;;;;22.87;15.53;;;;;;;15.47;97.04;92664.91;5048877;28;20182;-69
2022/09/01 01:31:00;;;;;;;18.80;17.03;;;;;;;15.80;97.36;92702.88;5046025;28;20209;-69
2022/09/01 01:33:40;;;;;;;19.63;16.10;;;;;;;15.93;97.14;92694.06;5029570;28;20183;-69
2022/09/01 01:36:15;;;;;;;19.00;16.83;;;;;;;16.11;96.08;92687.72;5029288;28;20201;-69
2022/09/01 01:38:43;;;;;;;19.47;17.27;;;;;;;16.19;95.74;92697.47;5033240;28;20200;-69
2022/09/01 01:41:10;;;;;;;18.23;16.43;;;;;;;16.01;96.85;92690.69;5035815;28;20262;-69
2022/09/01 01:43:36;;;;;;;18.00;16.20;;;;;;;16.13;97.03;92696.09;5035630;28;20198;-69
2022/09/01 01:46:06;;;;;;;19.73;17.00;;;;;;;16.11;96.99;92703.53;5035663;28;20237;-71
2022/09/01 01:48:35;;;;;;;19.30;17.33;;;;;;;15.86;97.94;92689.25;5036171;28;20197;-69
2022/09/01 01:51:03;;;;;;;18.80;17.00;;;;;;;15.88;98.49;92713.44;5040068;28;20177;-69
2022/09/01 01:53:29;;;;;;;20.90;17.63;;;;;;;15.81;98.87;92713.09;5056268;28;20190;-70
2022/09/01 01:55:57;;;;;;;20.80;18.60;;;;;;;15.80;99.11;92711.56;5051853;28;20171;-72
2022/09/01 01:58:24;;;;;;;19.93;17.80;;;;;;;15.51;99.25;92671.09;5036397;28;20175;-70
2022/09/01 02:00:51;;;;;;;20.40;17.17;;;;;;;15.84;99.05;92717.75;5035645;28;21495;-69
2022/09/01 02:03:20;;;;;;;21.03;17.03;;;;;;;15.70;99.58;92705.81;5036123;28;20222;-69
2022/09/01 02:05:48;;;;;;;21.37;18.73;;;;;;;15.81;99.05;92718.34;5035289;28;20230;-69
2022/09/01 02:08:14;;;;;;;23.47;18.87;;;;;;;15.68;100.00;92718.50;5035077;28;20226;-69
2022/09/01 02:10:43;;;;;;;27.77;20.80;;;;;;;15.59;100.00;92715.84;5035380;28;20233;-69
2022/09/01 02:13:15;;;;;;;25.60;18.77;;;;;;;15.61;100.00;92702.38;5035986;28;20189;-70
2022/09/01 02:15:45;;;;;;;23.93;20.00;;;;;;;15.62;100.00;92719.72;5034910;28;20238;-69
2022/09/01 02:18:18;;;;;;;23.90;19.53;;;;;;;15.42;100.00;92709.75;5036362;28;20214;-69
2022/09/01 02:20:46;;;;;;;21.97;19.67;;;;;;;15.53;100.00;92717.06;5034738;28;20206;-69
2022/09/01 02:23:14;;;;;;;20.10;17.90;;;;;;;15.57;100.00;92714.59;5035977;28;20178;-69
2022/09/01 02:25:43;;;;;;;22.50;18.27;;;;;;;15.50;100.00;92709.00;5036084;28;20309;-71
2022/09/01 02:28:14;;;;;;;20.17;18.17;;;;;;;15.53;99.42;92721.56;5056051;28;20181;-69
2022/09/01 02:30:42;;;;;;;19.27;17.37;;;;;;;15.34;98.94;92690.22;5054592;28;21101;-70
2022/09/01 02:33:08;;;;;;;19.23;17.40;;;;;;;15.43;99.27;92713.94;5055790;28;20185;-69
2022/09/01 02:35:36;;;;;;;22.30;18.23;;;;;;;15.38;99.42;92712.22;5054303;28;20225;-69
2022/09/01 02:38:05;;;;;;;18.83;16.93;;;;;;;15.30;99.44;92712.16;5035761;28;20206;-69
2022/09/01 02:40:32;;;;;;;21.30;17.60;;;;;;;15.12;99.51;92686.88;5034785;28;20226;-70
2022/09/01 02:42:59;;;;;;;18.77;16.67;;;;;;;15.24;99.08;92703.63;5024745;28;20197;-69
2022/09/01 02:45:26;;;;;;;17.83;16.03;;;;;;;15.26;99.34;92703.31;5034017;28;20248;-69
2022/09/01 02:47:52;;;;;;;18.07;16.47;;;;;;;15.23;99.46;92709.97;5035662;28;20193;-69
2022/09/01 02:50:18;;;;;;;18.10;16.37;;;;;;;15.10;100.00;92704.78;5033334;28;20231;-69
2022/09/01 02:52:47;;;;;;;21.07;16.77;;;;;;;15.00;100.00;92703.22;5050498;28;20197;-69
2022/09/01 02:55:12;;;;;;;18.10;16.20;;;;;;;15.01;100.00;92694.25;5052130;28;20238;-68
2022/09/01 02:57:38;;;;;;;18.83;16.63;;;;;;;14.99;100.00;92675.38;5034005;28;20187;-69
2022/09/01 03:00:19;;;;;;;17.93;16.20;;;;;;;15.22;100.00;92694.50;5032567;28;20249;-70
2022/09/01 03:02:47;;;;;;;19.10;17.43;;;;;;;15.13;100.00;92685.81;5031043;28;20270;-70
2022/09/01 03:05:15;;;;;;;17.50;15.70;;;;;;;15.06;100.00;92672.31;5032000;28;20230;-69
2022/09/01 03:07:41;;;;;;;18.77;16.80;;;;;;;15.12;100.00;92678.97;5049561;28;20253;-69
2022/09/01 03:10:08;;;;;;;18.20;16.50;;;;;;;15.14;100.00;92682.88;5051619;28;20226;-69
2022/09/01 03:12:34;;;;;;;18.77;16.90;;;;;;;15.25;100.00;92701.78;5034448;28;20159;-69
2022/09/01 03:15:00;;;;;;;18.57;15.73;;;;;;;15.19;100.00;92697.75;5031351;28;20246;-69
2022/09/01 03:17:25;;;;;;;17.57;15.77;;;;;;;14.97;100.00;92663.63;5031984;28;20186;-68
2022/09/01 03:19:50;;;;;;;18.40;16.70;;;;;;;15.24;100.00;92697.59;5031196;28;20362;-69
2022/09/01 03:22:16;;;;;;;17.67;15.70;;;;;;;15.23;100.00;92688.16;5031755;28;20194;-69
2022/09/01 03:24:42;;;;;;;18.37;16.47;;;;;;;15.21;100.00;92683.19;5031289;28;20219;-70
2022/09/01 03:27:10;;;;;;;17.53;15.77;;;;;;;15.16;100.00;92679.94;5030247;28;20282;-69
2022/09/01 03:29:37;;;;;;;19.07;17.33;;;;;;;15.17;100.00;92699.88;5030484;28;20289;-68
2022/09/01 03:32:03;;;;;;;17.87;16.03;;;;;;;15.12;100.00;92681.63;5031783;28;20183;-69
2022/09/01 03:34:33;;;;;;;18.53;16.83;;;;;;;15.07;100.00;92702.78;5031265;28;20234;-70
2022/09/01 03:36:58;;;;;;;18.93;17.07;;;;;;;15.06;100.00;92695.97;5031002;28;20194;-71
2022/09/01 03:39:24;;;;;;;18.40;16.10;;;;;;;15.09;100.00;92705.88;5031359;28;20215;-70
2022/09/01 03:41:49;;;;;;;17.63;15.77;;;;;;;14.85;100.00;92684.44;5030918;28;20191;-70
2022/09/01 03:44:15;;;;;;;17.43;15.77;;;;;;;14.90;100.00;92686.94;5031369;28;20298;-69
2022/09/01 03:46:42;;;;;;;19.03;17.13;;;;;;;15.07;100.00;92697.50;5031044;28;20214;-68
2022/09/01 03:49:13;;;;;;;19.17;16.70;;;;;;;15.21;100.00;92703.44;5031216;28;20235;-69
2022/09/01 03:51:41;;;;;;;17.53;15.73;;;;;;;15.15;100.00;92696.78;5031470;28;20202;-69
2022/09/01 03:54:07;;;;;;;17.87;16.07;;;;;;;15.06;100.00;92682.81;5030897;28;20252;-69
2022/09/01 03:56:33;;;;;;;18.00;16.20;;;;;;;15.15;100.00;92702.81;5031048;28;20183;-70
2022/09/01 03:58:59;;;;;;;19.77;16.30;;;;;;;15.19;100.00;92700.38;5030856;28;20233;-69
2022/09/01 04:01:31;;;;;;;17.37;15.77;;;;;;;15.20;100.00;92697.44;5030817;28;20183;-69
2022/09/01 04:03:56;;;;;;;16.97;15.27;;;;;;;15.28;100.00;92695.91;5031014;28;20218;-69
2022/09/01 04:06:22;;;;;;;17.40;15.80;;;;;;;15.33;100.00;92701.78;5037674;28;20225;-71
2022/09/01 04:08:49;;;;;;;18.77;16.67;;;;;;;15.36;99.87;92700.44;5049197;28;20245;-69
2022/09/01 04:11:22;;;;;;;16.83;15.17;;;;;;;15.19;100.00;92681.97;5044317;28;20194;-70
2022/09/01 04:13:49;;;;;;;19.90;15.97;;;;;;;15.39;100.00;92705.88;5011879;28;20227;-70
2022/09/01 04:19:26;;;;;;;21.13;15.67;;;;;;;15.32;98.65;92678.44;5030503;28;20245;-68
2022/09/01 04:21:58;;;;;;;19.33;17.37;;;;;;;15.40;98.16;92696.13;5030472;28;20186;-69
2022/09/01 04:24:26;;;;;;;18.60;16.60;;;;;;;15.55;98.18;92709.63;5030905;28;20231;-69
2022/09/01 04:26:53;;;;;;;23.00;17.00;;;;;;;15.59;98.28;92707.19;5030206;28;20211;-69
2022/09/01 04:29:26;;;;;;;17.47;15.83;;;;;;;15.58;98.33;92698.50;5030474;28;20249;-69
2022/09/01 04:31:52;;;;;;;20.03;16.30;;;;;;;15.65;97.73;92693.56;5030457;28;20190;-68
2022/09/01 04:34:21;;;;;;;18.37;16.57;;;;;;;15.84;97.93;92709.84;5030480;28;20262;-69
2022/09/01 04:36:47;;;;;;;17.77;16.07;;;;;;;15.69;97.89;92664.75;5030469;28;20281;-69
2022/09/01 04:39:13;;;;;;;18.00;16.20;;;;;;;15.95;97.00;92684.00;5030450;28;20257;-69
2022/09/01 04:41:44;;;;;;;16.57;14.87;;;;;;;16.20;96.34;92700.91;5030402;28;20199;-69
2022/09/01 04:44:11;;;;;;;20.77;16.47;;;;;;;16.20;96.37;92709.59;5029400;28;20354;-68
2022/09/01 04:46:41;;;;;;;23.67;17.77;;;;;;;16.20;96.32;92703.53;5030303;28;20220;-69
2022/09/01 04:49:11;;;;;;;25.33;20.57;;;;;;;16.59;95.34;92711.31;5030710;28;20234;-68
2022/09/01 04:51:41;;;;;;;26.73;20.50;;;;;;;16.49;96.00;92693.94;5030254;28;20186;-69
2022/09/01 04:54:13;;;;;;;26.87;19.27;;;;;;;16.60;95.91;92704.94;5030014;28;20234;-69
2022/09/01 04:56:40;;;;;;;29.47;21.30;;;;;;;16.62;96.20;92702.75;5038973;28;20182;-69
2022/09/01 04:59:07;;;;;;;26.03;20.93;;;;;;;16.74;96.46;92697.63;5049587;28;20218;-70
2022/09/01 05:01:44;;;;;;;27.77;21.17;;;;;;;16.84;95.94;92705.22;5041451;28;20293;-69
2022/09/01 05:04:16;;;;;;;25.97;21.40;;;;;;;16.87;95.64;92684.25;5030587;28;20229;-70
2022/09/01 05:06:46;;;;;;;33.77;23.57;;;;;;;16.62;97.51;92700.13;5029440;28;20218;-69
2022/09/01 05:09:12;;;;;;;25.07;21.07;;;;;;;16.77;96.84;92681.16;5029638;28;20270;-69
2022/09/01 05:11:39;;;;;;;25.67;22.17;;;;;;;17.11;95.24;92695.03;5028112;28;20198;-69
2022/09/01 05:14:05;;;;;;;27.77;20.93;;;;;;;17.23;94.96;92705.69;5008220;28;20282;-69
2022/09/01 05:16:32;;;;;;;28.77;22.83;;;;;;;17.17;94.96;92706.97;5018470;28;20193;-69
2022/09/01 05:19:00;;;;;;;26.13;22.97;;;;;;;17.21;94.96;92701.84;5029527;28;20943;-70
2022/09/01 05:21:27;;;;;;;30.27;22.43;;;;;;;17.36;93.85;92699.44;5029464;28;20205;-69
2022/09/01 05:23:53;;;;;;;27.17;21.57;;;;;;;17.36;93.89;92703.94;5029617;28;20232;-69
2022/09/01 05:26:25;;;;;;;25.47;20.80;;;;;;;17.28;94.11;92713.44;5036062;28;20234;-68
2022/09/01 05:28:54;;;;;;;29.80;20.97;;;;;;;17.37;94.47;92710.75;5049329;28;20693;-68
2022/09/01 05:31:21;;;;;;;24.50;21.33;;;;;;;17.42;92.47;92694.75;5042982;28;20252;-69
2022/09/01 05:33:49;;;;;;;24.10;20.27;;;;;;;17.75;90.31;92708.13;5029443;28;20253;-69
2022/09/01 05:36:20;;;;;;;23.67;20.57;;;;;;;17.64;90.60;92691.88;5029440;28;20203;-70
2022/09/01 05:38:47;;;;;;;24.57;21.53;;;;;;;17.75;90.63;92700.19;5061276;28;20222;-69
2022/09/01 05:41:14;;;;;;;25.67;21.47;;;;;;;17.80;90.54;92702.66;5061783;28;20263;-69
2022/09/01 05:43:45;;;;;;;26.00;21.30;;;;;;;17.79;90.52;92707.16;5029166;28;20349;-69
2022/09/01 05:46:12;;;;;;;27.83;21.90;;;;;;;18.10;88.53;92701.56;5029287;28;20238;-67
2022/09/01 05:48:38;;;;;;;26.33;20.40;;;;;;;18.28;87.73;92697.66;5029609;28;20179;-69
2022/09/01 05:51:05;;;;;;;25.70;21.47;;;;;;;17.73;90.62;92689.22;5029064;28;20182;-69
2022/09/01 05:53:32;;;;;;;23.73;19.97;;;;;;;18.11;89.85;92711.00;5029360;28;20199;-69
2022/09/01 05:55:59;;;;;;;26.70;19.50;;;;;;;18.51;86.81;92715.56;5024909;28;20188;-69
2022/09/01 05:58:26;;;;;;;25.33;21.30;;;;;;;19.63;81.95;92709.88;5009715;28;20191;-69
2022/09/01 06:00:57;;;;;;;24.37;18.90;;;;;;;21.94;69.92;92723.53;5013099;28;20238;-69
2022/09/01 06:03:23;;;;;;;24.03;17.87;;;;;;;20.80;72.38;92720.19;5029720;28;20216;-69
2022/09/01 06:05:51;;;;;;;20.57;18.30;;;;;;;19.54;76.99;92710.00;5030672;28;20244;-70
2022/09/01 06:08:19;;;;;;;22.53;19.00;;;;;;;18.88;81.73;92705.88;5049181;28;20231;-69
2022/09/01 06:10:45;;;;;;;22.47;17.93;;;;;;;19.11;81.91;92704.41;5046006;28;20227;-71
2022/09/01 06:13:14;;;;;;;23.97;19.53;;;;;;;18.88;83.46;92687.34;5029573;28;20191;-69
2022/09/01 06:15:40;;;;;;;25.33;19.17;;;;;;;19.29;80.89;92683.81;5028642;28;20232;-69
2022/09/01 06:18:07;;;;;;;23.97;17.63;;;;;;;19.54;79.77;92702.06;5028475;28;20173;-70
2022/09/01 06:20:39;;;;;;;26.50;19.47;;;;;;;19.32;78.99;92660.09;5029011;28;20239;-70
2022/09/01 06:23:04;;;;;;;20.53;18.23;;;;;;;19.55;79.29;92692.25;5029638;28;20183;-69
2022/09/01 06:25:30;;;;;;;25.43;19.23;;;;;;;19.35;79.17;92688.56;5031626;28;20260;-69
2022/09/01 06:27:56;;;;;;;25.63;18.63;;;;;;;19.49;79.00;92696.97;5033022;28;20297;-69
2022/09/01 06:30:25;;;;;;;24.03;19.57;;;;;;;19.56;78.67;92689.25;5033024;28;20245;-69
2022/09/01 06:32:51;;;;;;;20.87;18.57;;;;;;;19.10;80.40;92671.88;5049257;28;20188;-68
2022/09/01 06:35:17;;;;;;;19.33;17.33;;;;;;;19.68;78.73;92702.50;5032923;28;20259;-69
2022/09/01 06:37:44;;;;;;;20.57;17.83;;;;;;;19.95;77.83;92696.53;5032828;28;20194;-69
2022/09/01 06:40:18;;;;;;;27.00;17.57;;;;;;;20.12;76.81;92698.16;5032618;28;20236;-69
2022/09/01 06:42:49;;;;;;;25.53;18.13;;;;;;;19.95;77.76;92701.84;5032126;28;20200;-70
2022/09/01 06:45:16;;;;;;;20.43;16.83;;;;;;;20.01;79.00;92694.41;5032620;28;20259;-69
2022/09/01 06:47:43;;;;;;;21.40;17.57;;;;;;;20.01;78.37;92689.91;5032408;28;20193;-69
2022/09/01 06:50:11;;;;;;;21.57;17.00;;;;;;;20.01;77.44;92695.19;5032736;28;20328;-69
2022/09/01 06:52:39;;;;;;;17.23;15.60;;;;;;;20.00;78.62;92696.28;5032212;28;20249;-69
2022/09/01 06:55:05;;;;;;;22.07;17.47;;;;;;;20.02;78.23;92691.44;5032571;28;20301;-71
2022/09/01 06:57:30;;;;;;;19.73;17.67;;;;;;;19.96;78.65;92694.63;5032581;28;20189;-69
2022/09/01 06:59:55;;;;;;;28.03;17.27;;;;;;;20.00;79.63;92704.22;5032383;28;20312;-70
2022/09/01 07:02:21;;;;;;;21.07;16.97;;;;;;;20.18;80.01;92702.94;5032890;28;20276;-70
2022/09/01 07:04:47;;;;;;;21.07;18.83;;;;;;;20.19;79.73;92699.16;5032454;28;20226;-70
2022/09/01 07:07:13;;;;;;;19.10;17.13;;;;;;;19.76;80.26;92675.13;5032201;28;20190;-70
2022/09/01 07:09:39;;;;;;;23.33;19.03;;;;;;;20.01;81.33;92697.06;5031982;28;20559;-70
2022/09/01 07:12:05;;;;;;;21.47;17.63;;;;;;;20.56;79.36;92697.94;5027107;28;20265;-71
2022/09/01 07:14:31;;;;;;;24.03;19.00;;;;;;;20.21;79.86;92704.91;5012147;28;21779;-70
2022/09/01 07:16:57;;;;;;;25.93;21.43;;;;;;;20.64;78.14;92698.91;5024299;28;20221;-69
2022/09/01 07:19:24;;;;;;;23.88;18.65;;;;;;;20.52;78.51;92699.72;5032194;28;20230;-70
2022/09/01 07:21:51;;;;;;;22.40;18.87;;;;;;;20.52;78.10;92693.66;5031887;28;20193;-70
2022/09/01 07:24:19;;;;;;;26.05;20.00;;;;;;;20.49;78.44;92697.75;5032029;28;20249;-70
2022/09/01 07:26:52;;;;;;;23.67;19.15;;;;;;;20.95;77.30;92709.59;5031828;28;20205;-70
2022/09/01 07:29:18;;;;;;;22.25;17.92;;;;;;;21.04;75.88;92709.50;5031881;28;20257;-70
2022/09/01 07:31:44;;;;;;;24.08;20.15;;;;;;;19.85;80.00;92696.97;5032353;28;20182;-70
2022/09/01 07:34:13;;;;;;;22.30;19.27;;;;;;;20.23;80.91;92700.00;5031660;28;20252;-70
2022/09/01 07:36:40;;;;;;;27.33;19.05;;;;;;;20.55;80.01;92677.84;5039653;28;20196;-70
2022/09/01 07:39:06;;;;;;;24.30;19.10;;;;;;;20.96;76.82;92707.75;5051363;28;20228;-71
2022/09/01 07:41:33;;;;;;;22.38;19.27;;;;;;;20.99;76.23;92693.81;5051270;28;20189;-71
2022/09/01 07:44:01;;;;;;;24.65;18.27;;;;;;;21.07;75.17;92701.63;5032890;28;20236;-70
2022/09/01 07:46:30;;;;;;;25.27;19.35;;;;;;;20.94;76.94;92699.31;5032119;28;20210;-70
2022/09/01 07:48:56;;;;;;;21.80;18.90;;;;;;;21.14;75.92;92698.38;5031238;28;20237;-70
2022/09/01 07:51:23;;;;;;;22.58;19.42;;;;;;;21.16;75.10;92696.16;5031554;28;20225;-70
2022/09/01 07:53:49;;;;;;;23.27;19.77;;;;;;;21.16;74.89;92701.47;5030186;28;20297;-70
2022/09/01 07:56:17;;;;;;;24.15;19.98;;;;;;;21.12;75.73;92705.91;5031661;28;20697;-70
2022/09/01 07:58:43;;;;;;;24.67;20.25;;;;;;;20.69;77.64;92691.50;5031071;28;20197;-70
2022/09/01 08:01:12;;;;;;;23.98;20.83;;;;;;;20.66;79.52;92705.44;5031673;28;20182;-71
2022/09/01 08:03:39;;;;;;;25.90;20.02;;;;;;;21.22;76.05;92700.88;5030941;28;20195;-69
2022/09/01 08:06:10;;;;;;;25.13;19.65;;;;;;;21.20;76.37;92720.94;5034639;28;20215;-70
2022/09/01 08:08:38;;;;;;;29.77;20.98;;;;;;;21.23;76.70;92710.38;5050402;28;20402;-70
2022/09/01 08:11:05;;;;;;;29.83;22.33;;;;;;;21.33;76.87;92707.22;5050504;28;20179;-70
2022/09/01 08:13:32;;;;;;;31.42;22.98;;;;;;;21.35;75.47;92712.19;5033387;28;20195;-70
2022/09/01 08:15:58;;;;;;;26.58;21.13;;;;;;;21.37;76.31;92713.38;5034412;28;20203;-70
2022/09/01 08:18:23;;;;;;;30.13;20.02;;;;;;;21.22;77.52;92679.63;5051209;28;20204;-70
2022/09/01 08:20:49;;;;;;;29.27;21.13;;;;;;;21.73;74.14;92712.34;5049888;28;20254;-70
2022/09/01 08:23:17;;;;;;;25.83;19.02;;;;;;;21.74;74.77;92724.56;5051311;28;20189;-70
2022/09/01 08:25:44;;;;;;;29.98;21.15;;;;;;;21.17;76.18;92695.81;5049559;28;20232;-70
2022/09/01 08:28:12;;;;;;;26.65;21.33;;;;;;;21.47;75.16;92712.88;5050917;28;20175;-70
2022/09/01 08:30:40;;;;;;;36.15;23.40;;;;;;;21.20;75.50;92697.78;5049009;28;20226;-70
2022/09/01 08:33:05;;;;;;;23.77;20.70;;;;;;;21.88;73.47;92707.06;5031059;28;20201;-70
2022/09/01 08:35:31;;;;;;;27.73;19.88;;;;;;;21.58;75.99;92713.91;5030564;28;20224;-69
2022/09/01 08:37:58;;;;;;;22.63;19.75;;;;;;;21.51;74.27;92708.41;5050064;28;20212;-70
2022/09/01 08:40:24;;;;;;;26.13;19.05;;;;;;;21.16;75.20;92690.84;5050341;28;20259;-70
2022/09/01 08:43:04;;;;;;;23.10;20.15;;;;;;;20.88;77.07;92688.19;5040945;28;20193;-70
2022/09/01 08:45:36;;;;;;;23.92;19.70;;;;;;;20.87;78.15;92699.16;5030041;28;20225;-70
2022/09/01 08:48:13;;;;;;;22.55;19.92;;;;;;;20.73;77.58;92698.78;5029465;28;20176;-70
2022/09/01 08:50:38;;;;;;;28.52;20.23;;;;;;;21.05;76.95;92709.16;5029835;28;20255;-71
2022/09/01 08:53:42;;;;;;;26.75;19.42;;;;;;;21.26;75.77;92700.97;5030962;28;20202;-70
2022/09/01 08:56:09;;;;;;;23.95;18.75;;;;;;;21.59;73.43;92704.03;5035115;28;20230;-70
2022/09/01 08:58:35;;;;;;;27.25;19.92;;;;;;;21.50;74.07;92695.47;5049591;28;20237;-70
2022/09/01 09:01:07;;;;;;;22.63;18.67;;;;;;;21.46;73.22;92697.28;5046154;28;20181;-69
2022/09/01 09:03:47;;;;;;;23.30;19.42;;;;;;;21.83;72.82;92693.28;5030194;28;20181;-71
2022/09/01 09:06:20;;;;;;;20.20;18.08;;;;;;;22.12;70.61;92695.44;5035493;28;20290;-70
2022/09/01 09:09:00;;;;;;;23.05;20.52;;;;;;;22.08;70.56;92683.97;5049636;28;20223;-70
2022/09/01 09:12:00;;;;;;;27.20;20.63;;;;;;;21.91;70.17;92669.16;5032857;28;20192;-70
2022/09/01 09:14:44;;;;;;;22.20;18.20;;;;;;;21.92;71.41;92684.00;5010549;28;20230;-69
2022/09/01 09:17:12;;;;;;;23.67;17.73;;;;;;;22.31;72.24;92695.47;5037605;28;20276;-71
2022/09/01 09:19:43;;;;;;;21.42;18.30;;;;;;;22.53;70.00;92678.88;5049778;28;20223;-69
2022/09/01 09:22:15;;;;;;;20.15;18.08;;;;;;;22.89;70.04;92672.34;5036133;28;20210;-70
2022/09/01 09:24:48;;;;;;;24.98;18.40;;;;;;;23.10;68.24;92681.47;5029937;28;20226;-70
2022/09/01 09:27:28;;;;;;;24.75;18.33;;;;;;;23.23;66.80;92680.19;5043694;28;20249;-71
2022/09/01 09:29:59;;;;;;;19.27;17.23;;;;;;;23.44;67.18;92675.25;5049653;28;20227;-70
2022/09/01 09:32:52;;;;;;;21.63;18.67;;;;;;;23.61;65.09;92682.00;5049957;28;20187;-70
2022/09/01 09:35:22;;;;;;;23.30;17.98;;;;;;;23.40;63.45;92677.09;5009296;28;20236;-70
2022/09/01 09:37:48;;;;;;;23.08;18.80;;;;;;;22.86;64.37;92668.50;5047590;28;20181;-70
2022/09/01 09:40:25;;;;;;;21.83;17.67;;;;;;;23.13;64.23;92659.47;5049378;28;20239;-69
2022/09/01 09:42:53;;;;;;;20.30;18.15;;;;;;;23.55;63.92;92673.53;5040013;28;20189;-71
2022/09/01 09:45:33;;;;;;;22.42;17.30;;;;;;;23.42;62.06;92661.53;5029354;28;20288;-70
2022/09/01 09:47:59;;;;;;;20.45;17.45;;;;;;;23.29;64.13;92659.38;5028511;28;20206;-71
2022/09/01 09:50:29;;;;;;;24.77;17.85;;;;;;;23.57;61.08;92676.63;5029817;28;20234;-71
2022/09/01 09:53:15;;;;;;;21.25;18.23;;;;;;;22.49;65.56;92672.66;5029706;28;20195;-70
2022/09/01 09:56:18;;;;;;;23.48;18.83;;;;;;;22.12;67.05;92648.34;5029862;28;21163;-70
2022/09/01 09:58:46;;;;;;;22.13;17.67;;;;;;;21.98;66.69;92663.22;5049423;28;20181;-70
2022/09/01 10:01:21;;;;;;;21.45;16.05;;;;;;;22.30;67.33;92670.00;5053231;28;20263;-70
2022/09/01 10:03:49;;;;;;;19.55;17.50;;;;;;;22.44;68.66;92664.97;5052940;28;20192;-71
2022/09/01 10:06:37;;;;;;;23.30;17.15;;;;;;;22.96;65.66;92669.78;5046990;28;20205;-70
2022/09/01 10:09:14;;;;;;;23.38;18.13;;;;;;;23.13;64.61;92670.13;5033881;28;20264;-70
2022/09/01 10:11:47;;;;;;;22.00;18.15;;;;;;;22.89;66.34;92654.47;5040613;28;20201;-70
2022/09/01 10:14:19;;;;;;;20.67;18.58;;;;;;;22.89;67.65;92661.69;5033298;28;20232;-70
2022/09/01 10:16:48;;;;;;;19.48;17.40;;;;;;;22.88;67.90;92663.56;5043319;28;20253;-71
2022/09/01 10:19:14;;;;;;;21.75;18.33;;;;;;;23.04;64.47;92637.63;5053172;28;20236;-70
2022/09/01 10:21:46;;;;;;;19.52;17.42;;;;;;;23.11;63.60;92650.28;5052735;28;20198;-70
2022/09/01 10:24:29;;;;;;;23.25;17.40;;;;;;;23.16;63.72;92655.34;5053134;28;20240;-68
2022/09/01 10:27:15;;;;;;;21.40;18.10;;;;;;;23.02;64.03;92658.50;5040611;28;20200;-69
2022/09/01 10:30:10;;;;;;;19.50;17.38;;;;;;;23.12;64.88;92657.94;5032672;28;20236;-70
2022/09/01 10:32:43;;;;;;;20.60;16.92;;;;;;;23.29;65.26;92649.50;5027831;28;20214;-70
2022/09/01 10:35:18;;;;;;;18.70;16.75;;;;;;;23.30;63.83;92648.38;5032766;28;20233;-71
2022/09/01 10:37:46;;;;;;;23.83;18.70;;;;;;;23.27;64.98;92643.75;5051049;28;20192;-71
2022/09/01 10:40:19;;;;;;;19.90;17.80;;;;;;;23.40;65.57;92650.44;5052358;28;20239;-71
2022/09/01 10:42:52;;;;;;;24.60;17.40;;;;;;;23.26;66.08;92655.53;5052151;28;20196;-70
2022/09/01 10:45:27;;;;;;;23.30;16.65;;;;;;;23.42;64.67;92656.19;5052625;28;20240;-70
2022/09/01 10:47:53;;;;;;;21.33;18.42;;;;;;;22.91;64.80;92617.59;5032537;28;20256;-71
2022/09/01 10:50:31;;;;;;;23.92;18.52;;;;;;;22.85;64.87;92647.53;5032765;28;20229;-70
2022/09/01 10:53:06;;;;;;;21.83;18.40;;;;;;;23.36;64.16;92641.59;5033210;28;20188;-72
2022/09/01 10:55:38;;;;;;;24.15;16.98;;;;;;;23.73;62.87;92645.28;5032030;28;20264;-70
2022/09/01 10:58:42;;;;;;;18.23;16.35;;;;;;;23.96;64.92;92652.44;5052881;28;20799;-70
2022/09/01 11:01:07;;;;;;;17.92;15.95;;;;;;;24.16;61.71;92643.22;5046973;28;20217;-70
2022/09/01 11:03:52;;;;;;;26.95;16.80;;;;;;;24.40;59.76;92632.09;5032502;28;20286;-71
2022/09/01 11:06:41;;;;;;;18.33;15.45;;;;;;;24.37;60.19;92638.94;5032263;28;20227;-70
2022/09/01 11:09:24;;;;;;;18.77;16.90;;;;;;;24.18;60.97;92638.28;5032132;28;20230;-70
2022/09/01 11:12:13;;;;;;;21.80;17.25;;;;;;;24.57;60.55;92635.00;5027663;28;20214;-70
2022/09/01 11:15:02;;;;;;;19.02;16.65;;;;;;;24.50;58.78;92594.09;5011391;28;20943;-70
2022/09/01 11:17:35;;;;;;;17.15;14.77;;;;;;;24.70;58.40;92622.19;5011978;28;20374;-71
2022/09/01 11:20:09;;;;;;;18.35;14.77;;;;;;;23.74;57.12;92633.47;5012370;28;20230;-70
2022/09/01 11:22:42;;;;;;;16.52;14.90;;;;;;;24.34;56.85;92630.88;5046442;28;20198;-70
2022/09/01 11:25:07;;;;;;;17.27;13.57;;;;;;;24.65;54.68;92622.50;5052070;28;20233;-72
2022/09/01 11:27:48;;;;;;;17.05;15.13;;;;;;;24.31;55.89;92624.34;5050722;28;20189;-70
2022/09/01 11:30:20;;;;;;;20.20;14.93;;;;;;;24.37;56.60;92614.13;5051471;28;20283;-70
2022/09/01 11:32:50;;;;;;;18.48;15.25;;;;;;;24.89;54.19;92622.00;5033335;28;20170;-70
2022/09/01 11:35:19;;;;;;;16.90;14.65;;;;;;;24.50;55.19;92610.88;5030700;28;20894;-71